createdAt,value
2017-10-02T00:00:07.840Z,18.41
2017-10-02T00:02:35.088Z,18.41
2017-10-02T00:05:02.301Z,18.41
2017-10-02T00:07:29.585Z,18.41
2017-10-02T00:09:56.788Z,18.40
2017-10-02T00:12:24.096Z,18.40
2017-10-02T00:14:51.322Z,18.40
2017-10-02T00:17:18.493Z,18.39
2017-10-02T00:19:45.694Z,18.39
2017-10-02T00:22:12.958Z,18.39
2017-10-02T00:24:40.153Z,18.39
2017-10-02T00:27:07.434Z,18.39
2017-10-02T00:29:34.667Z,18.39
2017-10-02T00:32:01.835Z,18.38
2017-10-02T00:34:29.303Z,18.38
2017-10-02T00:36:56.552Z,18.37
2017-10-02T00:39:23.779Z,18.37
2017-10-02T00:41:51.039Z,18.38
2017-10-02T00:44:18.295Z,18.38
2017-10-02T00:46:45.451Z,18.37
2017-10-02T00:49:12.689Z,18.37
2017-10-02T00:51:39.967Z,18.37
2017-10-02T00:54:07.185Z,18.37
2017-10-02T00:56:34.451Z,18.38
2017-10-02T00:59:01.650Z,18.38
2017-10-02T01:01:28.846Z,18.38
2017-10-02T01:03:56.131Z,18.41
2017-10-02T01:06:23.306Z,18.44
2017-10-02T01:08:50.516Z,18.41
2017-10-02T01:11:17.743Z,18.35
2017-10-02T01:13:45.015Z,18.36
2017-10-02T01:16:12.220Z,18.32
2017-10-02T01:18:39.537Z,18.34
2017-10-02T01:21:06.763Z,18.31
2017-10-02T01:23:33.915Z,18.25
2017-10-02T01:26:01.233Z,18.23
2017-10-02T01:28:28.500Z,18.24
2017-10-02T01:30:55.677Z,18.23
2017-10-02T01:33:22.877Z,18.18
2017-10-02T01:35:50.072Z,18.18
2017-10-02T01:38:17.374Z,18.12
2017-10-02T01:40:44.610Z,18.15
2017-10-02T01:43:11.843Z,18.11
2017-10-02T01:45:39.063Z,18.08
2017-10-02T01:48:06.283Z,18.06
2017-10-02T01:50:33.490Z,18.07
2017-10-02T01:53:00.699Z,18.06
2017-10-02T01:55:27.975Z,18.04
2017-10-02T01:57:55.173Z,18.00
2017-10-02T02:00:22.370Z,17.99
2017-10-02T02:02:49.531Z,17.99
2017-10-02T02:05:16.711Z,17.97
2017-10-02T02:07:43.936Z,17.95
2017-10-02T02:10:11.166Z,17.96
2017-10-02T02:12:38.362Z,17.94
2017-10-02T02:15:05.535Z,17.94
2017-10-02T02:17:32.736Z,17.91
2017-10-02T02:19:59.914Z,17.89
2017-10-02T02:22:27.366Z,17.85
2017-10-02T02:24:54.624Z,17.85
2017-10-02T02:27:21.805Z,17.85
2017-10-02T02:29:49.020Z,17.85
2017-10-02T02:32:16.251Z,17.80
2017-10-02T02:34:43.444Z,17.79
2017-10-02T02:37:10.662Z,17.78
2017-10-02T02:39:37.876Z,17.79
2017-10-02T02:42:05.091Z,17.77
2017-10-02T02:44:32.410Z,17.75
2017-10-02T02:46:59.600Z,17.77
2017-10-02T02:49:26.792Z,17.73
2017-10-02T02:51:54.003Z,17.75
2017-10-02T02:54:21.186Z,17.72
2017-10-02T02:56:48.425Z,17.71
2017-10-02T02:59:15.613Z,17.72
2017-10-02T03:01:42.814Z,17.70
2017-10-02T03:04:10.062Z,17.70
2017-10-02T03:06:37.230Z,17.68
2017-10-02T03:09:04.430Z,17.66
2017-10-02T03:11:31.741Z,17.66
2017-10-02T03:13:58.893Z,17.66
2017-10-02T03:16:26.072Z,17.63
2017-10-02T03:18:54.007Z,17.62
2017-10-02T03:21:21.204Z,17.59
2017-10-02T03:23:48.362Z,17.58
2017-10-02T03:26:15.559Z,17.59
2017-10-02T03:28:42.708Z,17.61
2017-10-02T03:31:10.019Z,17.57
2017-10-02T03:33:37.222Z,17.57
2017-10-02T03:36:04.434Z,17.57
2017-10-02T03:38:31.644Z,17.56
2017-10-02T03:40:58.869Z,17.54
2017-10-02T03:43:26.179Z,17.55
2017-10-02T03:45:53.378Z,17.58
2017-10-02T03:48:20.739Z,17.62
2017-10-02T03:50:47.926Z,17.65
2017-10-02T03:53:15.200Z,17.67
2017-10-02T03:55:42.455Z,17.72
2017-10-02T03:58:09.715Z,17.75
2017-10-02T04:00:36.966Z,17.77
2017-10-02T04:03:04.150Z,17.79
2017-10-02T04:05:31.393Z,17.81
2017-10-02T04:07:58.686Z,17.84
2017-10-02T04:10:25.914Z,17.87
2017-10-02T04:12:54.628Z,17.91
2017-10-02T04:15:21.958Z,17.92
2017-10-02T04:17:49.159Z,17.94
2017-10-02T04:20:16.407Z,17.95
2017-10-02T04:22:43.671Z,17.97
2017-10-02T04:25:10.871Z,18.01
2017-10-02T04:27:38.167Z,18.05
2017-10-02T04:30:05.474Z,18.06
2017-10-02T04:32:32.682Z,18.06
2017-10-02T04:34:59.995Z,18.11
2017-10-02T04:37:27.246Z,18.13
2017-10-02T04:39:54.510Z,18.10
2017-10-02T04:42:21.743Z,18.10
2017-10-02T04:44:48.992Z,18.11
2017-10-02T04:47:16.287Z,18.14
2017-10-02T04:49:43.604Z,18.17
2017-10-02T04:52:10.821Z,18.22
2017-10-02T04:54:38.001Z,18.24
2017-10-02T04:57:05.255Z,18.29
2017-10-02T04:59:32.481Z,18.31
2017-10-02T05:01:59.779Z,18.35
2017-10-02T05:04:27.025Z,18.37
2017-10-02T05:06:54.290Z,18.37
2017-10-02T05:09:21.554Z,18.37
2017-10-02T05:11:48.843Z,18.39
2017-10-02T05:14:16.110Z,18.41
2017-10-02T05:16:43.549Z,18.44
2017-10-02T05:19:10.873Z,18.49
2017-10-02T05:21:38.212Z,18.52
2017-10-02T05:24:05.474Z,18.57
2017-10-02T05:26:32.709Z,18.54
2017-10-02T05:29:01.653Z,18.63
2017-10-02T05:31:28.880Z,18.70
2017-10-02T05:33:56.210Z,18.79
2017-10-02T05:38:55.170Z,18.94
2017-10-02T05:41:22.460Z,19.00
2017-10-02T05:43:49.725Z,19.06
2017-10-02T05:46:17.060Z,19.22
2017-10-02T05:48:44.516Z,19.29
2017-10-02T05:51:11.782Z,19.31
2017-10-02T05:53:39.098Z,19.34
2017-10-02T05:56:06.414Z,19.45
2017-10-02T05:58:33.787Z,19.49
2017-10-02T06:01:01.023Z,19.55
2017-10-02T06:03:28.372Z,19.55
2017-10-02T06:05:55.629Z,19.65
2017-10-02T06:08:23.114Z,19.75
2017-10-02T06:10:50.311Z,19.82
2017-10-02T06:13:18.272Z,19.86
2017-10-02T06:18:18.750Z,20.03
2017-10-02T06:20:46.351Z,20.00
2017-10-02T06:23:16.564Z,20.09
2017-10-02T06:25:45.385Z,20.10
2017-10-02T06:30:48.565Z,20.19
2017-10-02T06:35:49.646Z,20.41
2017-10-02T06:38:17.479Z,20.36
2017-10-02T06:40:44.980Z,20.38
2017-10-02T06:43:12.703Z,20.52
2017-10-02T06:45:39.895Z,20.54
2017-10-02T06:53:15.384Z,20.53
2017-10-02T07:00:52.790Z,20.85
2017-10-02T07:03:20.806Z,20.93
2017-10-02T07:08:23.109Z,21.06
2017-10-02T07:13:23.019Z,21.14
2017-10-02T07:15:51.108Z,21.37
2017-10-02T07:18:19.951Z,21.27
2017-10-02T07:23:22.987Z,21.39
2017-10-02T07:25:52.499Z,21.65
2017-10-02T07:28:20.102Z,21.71
2017-10-02T07:30:47.796Z,21.68
2017-10-02T07:33:19.349Z,21.63
2017-10-02T07:35:48.216Z,21.69
2017-10-02T07:38:15.672Z,21.92
2017-10-02T07:40:43.449Z,21.83
2017-10-02T07:43:11.663Z,21.98
2017-10-02T07:48:16.320Z,22.10
2017-10-02T07:53:17.915Z,22.12
2017-10-02T07:55:49.283Z,22.02
2017-10-02T08:03:26.842Z,22.20
2017-10-02T08:08:33.324Z,22.18
2017-10-02T08:21:13.822Z,22.42
2017-10-02T08:26:13.559Z,22.39
2017-10-02T08:28:40.782Z,22.47
2017-10-02T08:31:08.111Z,22.41
2017-10-02T08:33:36.224Z,22.59
2017-10-02T08:38:35.337Z,22.58
2017-10-02T08:41:05.522Z,22.49
2017-10-02T08:43:35.121Z,22.55
2017-10-02T08:46:02.913Z,22.54
2017-10-02T08:48:34.521Z,22.53
2017-10-02T08:51:03.873Z,22.64
2017-10-02T08:53:31.315Z,22.39
2017-10-02T08:56:00.604Z,22.57
2017-10-02T08:58:30.050Z,22.53
2017-10-02T09:00:58.680Z,22.51
2017-10-02T09:03:26.699Z,22.63
2017-10-02T09:05:55.973Z,22.70
2017-10-02T09:08:23.420Z,22.42
2017-10-02T09:10:50.648Z,22.52
2017-10-02T09:13:19.451Z,22.70
2017-10-02T09:18:21.454Z,22.55
2017-10-02T09:20:48.846Z,22.66
2017-10-02T09:23:17.556Z,22.62
2017-10-02T09:30:51.913Z,22.61
2017-10-02T09:33:21.087Z,22.52
2017-10-02T09:35:48.871Z,22.36
2017-10-02T09:38:20.059Z,22.61
2017-10-02T09:40:48.750Z,22.46
2017-10-02T09:43:17.619Z,22.54
2017-10-02T09:48:17.262Z,22.72
2017-10-02T09:50:44.711Z,22.57
2017-10-02T09:53:12.121Z,22.78
2017-10-02T09:55:40.614Z,22.65
2017-10-02T09:58:11.610Z,22.71
2017-10-02T10:00:40.144Z,22.83
2017-10-02T10:26:00.912Z,22.99
2017-10-02T10:28:30.670Z,23.10
2017-10-02T10:30:58.067Z,23.13
2017-10-02T10:33:25.365Z,22.95
2017-10-02T10:35:52.688Z,23.09
2017-10-02T10:38:19.948Z,23.21
2017-10-02T10:40:49.565Z,23.08
2017-10-02T10:43:16.922Z,23.11
2017-10-02T10:45:44.276Z,23.06
2017-10-02T10:48:12.296Z,23.04
2017-10-02T10:50:42.212Z,23.13
2017-10-02T10:53:10.161Z,23.26
2017-10-02T10:58:10.270Z,23.11
2017-10-02T11:00:38.508Z,23.29
2017-10-02T11:03:05.954Z,23.20
2017-10-02T11:05:35.762Z,23.22
2017-10-02T11:10:35.305Z,23.19
2017-10-02T11:15:36.013Z,23.09
2017-10-02T11:18:03.365Z,23.07
2017-10-02T11:20:30.714Z,23.09
2017-10-02T11:23:01.542Z,23.25
2017-10-02T11:25:30.964Z,23.17
2017-10-02T11:28:00.845Z,23.36
2017-10-02T11:33:05.100Z,23.26
2017-10-02T11:38:06.636Z,23.34
2017-10-02T11:40:34.566Z,23.35
2017-10-02T11:45:35.756Z,23.38
2017-10-02T11:48:03.589Z,23.43
2017-10-02T11:50:36.847Z,23.51
2017-10-02T11:55:36.754Z,23.56
2017-10-02T11:58:06.997Z,23.52
2017-10-02T12:00:34.400Z,23.65
2017-10-02T12:03:03.393Z,23.65
2017-10-02T12:10:39.255Z,23.53
2017-10-02T12:13:09.045Z,23.58
2017-10-02T12:20:43.761Z,23.57
2017-10-02T12:28:23.598Z,23.49
2017-10-02T12:30:51.812Z,23.60
2017-10-02T12:35:55.647Z,23.59
2017-10-02T12:56:23.081Z,23.83
2017-10-02T13:04:00.876Z,23.72
2017-10-02T13:06:29.264Z,24.02
2017-10-02T13:08:56.589Z,24.05
2017-10-02T13:11:27.700Z,23.89
2017-10-02T13:16:27.407Z,23.99
2017-10-02T13:18:55.323Z,23.97
2017-10-02T13:29:07.812Z,24.01
2017-10-02T13:34:10.018Z,23.94
2017-10-02T13:39:09.121Z,23.90
2017-10-02T13:46:43.144Z,23.78
2017-10-02T13:49:10.912Z,24.04
2017-10-02T13:51:40.131Z,24.12
2017-10-02T13:54:07.601Z,24.07
2017-10-02T13:56:38.777Z,24.12
2017-10-02T13:59:09.698Z,24.17
2017-10-02T14:04:11.723Z,24.25
2017-10-02T14:11:50.001Z,24.36
2017-10-02T14:16:54.628Z,24.38
2017-10-02T14:19:22.431Z,24.36
2017-10-02T14:21:50.718Z,24.38
2017-10-02T14:24:19.214Z,24.33
2017-10-02T14:26:46.720Z,24.30
2017-10-02T14:36:55.635Z,24.18
2017-10-02T14:39:23.109Z,24.18
2017-10-02T14:44:24.687Z,24.14
2017-10-02T14:51:59.619Z,24.09
2017-10-02T14:56:59.650Z,24.05
2017-10-02T15:02:00.185Z,23.98
2017-10-02T15:04:28.608Z,23.94
2017-10-02T15:06:58.992Z,23.92
2017-10-02T15:09:26.627Z,23.90
2017-10-02T15:11:57.784Z,23.88
2017-10-02T15:16:59.675Z,23.84
2017-10-02T15:22:01.628Z,23.77
2017-10-02T15:24:28.929Z,23.76
2017-10-02T15:26:56.252Z,23.75
2017-10-02T15:31:57.639Z,23.72
2017-10-02T15:34:25.318Z,23.72
2017-10-02T15:36:55.398Z,23.71
2017-10-02T15:39:25.845Z,23.68
2017-10-02T15:47:15.357Z,23.64
2017-10-02T15:49:42.708Z,23.66
2017-10-02T15:52:10.064Z,23.61
2017-10-02T15:54:37.357Z,23.57
2017-10-02T15:57:05.458Z,23.55
2017-10-02T15:59:32.789Z,23.51
2017-10-02T16:02:00.077Z,23.48
2017-10-02T16:04:28.389Z,23.45
2017-10-02T16:06:55.633Z,23.42
2017-10-02T16:09:23.065Z,23.41
2017-10-02T16:14:24.275Z,23.38
2017-10-02T16:16:51.704Z,23.38
2017-10-02T16:19:18.939Z,23.37
2017-10-02T16:21:46.199Z,23.35
2017-10-02T16:24:13.406Z,23.32
2017-10-02T16:26:40.760Z,23.32
2017-10-02T16:29:08.074Z,23.31
2017-10-02T16:31:35.471Z,23.29
2017-10-02T16:34:02.722Z,23.31
2017-10-02T16:36:30.211Z,23.30
2017-10-02T16:38:57.433Z,23.28
2017-10-02T16:41:26.174Z,23.25
2017-10-02T16:43:53.433Z,23.22
2017-10-02T16:46:20.870Z,23.24
2017-10-02T16:48:48.194Z,23.19
2017-10-02T16:51:15.644Z,23.18
2017-10-02T16:53:43.466Z,23.14
2017-10-02T16:56:10.753Z,23.13
2017-10-02T16:58:39.018Z,23.11
2017-10-02T17:01:06.590Z,23.09
2017-10-02T17:03:34.086Z,23.06
2017-10-02T17:06:01.515Z,23.06
2017-10-02T17:08:28.830Z,23.06
2017-10-02T17:10:56.084Z,23.08
2017-10-02T17:13:23.469Z,23.08
2017-10-02T17:15:50.827Z,23.08
2017-10-02T17:18:18.222Z,23.08
2017-10-02T17:20:45.833Z,23.11
2017-10-02T17:23:13.131Z,23.14
2017-10-02T17:25:40.391Z,23.12
2017-10-02T17:28:07.844Z,23.11
2017-10-02T17:30:35.069Z,23.11
2017-10-02T17:33:02.438Z,23.10
2017-10-02T17:35:30.089Z,23.09
2017-10-02T17:37:57.454Z,23.11
2017-10-02T17:40:25.158Z,23.13
2017-10-02T17:42:52.467Z,23.09
2017-10-02T17:45:19.791Z,23.07
2017-10-02T17:47:47.371Z,23.06
2017-10-02T17:55:56.763Z,23.02
2017-10-02T17:58:24.069Z,22.99
2017-10-02T18:12:12.575Z,22.87
2017-10-02T18:14:52.800Z,22.81
2017-10-02T18:17:20.226Z,22.75
2017-10-02T18:19:48.737Z,22.69
2017-10-02T18:22:16.162Z,22.62
2017-10-02T18:24:43.691Z,22.58
2017-10-02T18:27:11.000Z,22.55
2017-10-02T18:29:49.111Z,22.50
2017-10-02T18:32:16.367Z,22.46
2017-10-02T18:34:43.568Z,22.40
2017-10-02T18:37:10.999Z,22.34
2017-10-02T18:39:38.219Z,22.29
2017-10-02T18:42:05.538Z,22.26
2017-10-02T18:44:32.817Z,22.23
2017-10-02T18:47:00.227Z,22.19
2017-10-02T18:49:27.751Z,22.16
2017-10-02T18:51:55.041Z,22.12
2017-10-02T18:59:26.440Z,22.04
2017-10-02T19:01:53.845Z,22.02
2017-10-02T19:04:21.071Z,21.99
2017-10-02T19:06:48.314Z,21.96
2017-10-02T19:09:24.169Z,21.92
2017-10-02T19:11:51.541Z,21.90
2017-10-02T19:24:41.373Z,21.78
2017-10-02T19:27:08.662Z,21.76
2017-10-02T19:37:29.884Z,21.66
2017-10-02T20:06:02.607Z,21.42
2017-10-02T20:08:29.789Z,21.42
2017-10-02T20:10:57.011Z,21.39
2017-10-02T20:13:24.344Z,21.37
2017-10-02T20:15:51.528Z,21.35
2017-10-02T20:18:18.847Z,21.33
2017-10-02T20:20:46.144Z,21.32
2017-10-02T20:23:13.305Z,21.30
2017-10-02T21:16:45.211Z,20.89
2017-10-02T21:19:25.437Z,20.87
2017-10-02T21:22:05.657Z,20.84
2017-10-02T21:24:32.899Z,20.82
2017-10-02T21:27:00.166Z,20.79
2017-10-02T21:29:27.398Z,20.78
2017-10-02T21:31:54.680Z,20.76
2017-10-02T21:34:22.142Z,20.73
2017-10-02T21:39:20.864Z,20.69
2017-10-02T21:41:48.102Z,20.67
2017-10-02T21:44:15.363Z,20.66
2017-10-02T21:46:42.604Z,20.64
2017-10-02T21:49:09.901Z,20.62
2017-10-02T21:51:37.122Z,20.60
2017-10-02T21:56:38.062Z,20.56
2017-10-02T21:59:05.307Z,20.55
2017-10-02T22:01:33.183Z,20.53
2017-10-02T22:04:00.470Z,20.51
2017-10-02T22:06:27.753Z,20.50
2017-10-02T22:08:55.031Z,20.48
2017-10-02T22:14:04.827Z,20.46
2017-10-02T22:16:32.446Z,20.44
2017-10-02T22:18:59.719Z,20.42
2017-10-02T22:21:26.980Z,20.40
2017-10-02T22:23:54.212Z,20.39
2017-10-02T22:26:21.653Z,20.37
2017-10-02T22:28:48.928Z,20.35
2017-10-02T22:31:16.163Z,20.34
2017-10-02T22:33:43.410Z,20.32
